createdAt,value
2017-06-30T00:01:32.409Z,2.33
2017-06-30T00:03:58.445Z,1.40
2017-06-30T00:06:24.496Z,1.85
2017-06-30T00:08:50.538Z,1.77
2017-06-30T00:11:16.578Z,1.62
2017-06-30T00:13:42.623Z,1.67
2017-06-30T00:16:08.668Z,1.70
2017-06-30T00:18:34.708Z,1.60
2017-06-30T00:21:00.750Z,1.87
2017-06-30T00:23:26.795Z,1.20
2017-06-30T00:25:52.831Z,1.35
2017-06-30T00:28:18.872Z,1.48
2017-06-30T00:30:44.913Z,1.40
2017-06-30T00:33:10.957Z,1.30
2017-06-30T00:35:36.997Z,1.30
2017-06-30T00:38:03.054Z,1.08
2017-06-30T00:40:29.841Z,1.20
2017-06-30T00:42:55.884Z,1.65
2017-06-30T00:45:21.938Z,1.05
2017-06-30T00:47:47.979Z,0.80
2017-06-30T00:50:14.025Z,1.17
2017-06-30T00:52:40.074Z,1.00
2017-06-30T00:55:06.117Z,1.15
2017-06-30T00:57:32.165Z,1.12
2017-06-30T00:59:58.249Z,1.08
2017-06-30T01:02:24.296Z,1.50
2017-06-30T01:04:50.337Z,0.98
2017-06-30T01:07:16.381Z,1.10
2017-06-30T01:09:42.437Z,0.80
2017-06-30T01:12:08.493Z,1.10
2017-06-30T01:14:34.533Z,1.33
2017-06-30T01:28:08.703Z,1.00
2017-06-30T01:30:34.744Z,1.20
2017-06-30T01:33:00.793Z,1.10
2017-06-30T01:35:26.849Z,1.05
2017-06-30T01:37:52.910Z,1.12
2017-06-30T01:40:18.970Z,1.10
2017-06-30T01:42:45.773Z,1.55
2017-06-30T01:45:11.848Z,1.60
2017-06-30T01:47:37.918Z,1.80
2017-06-30T01:50:04.006Z,1.85
2017-06-30T01:52:30.062Z,1.25
2017-06-30T01:54:56.106Z,1.08
2017-06-30T01:57:22.189Z,2.20
2017-06-30T01:59:48.266Z,2.28
2017-06-30T02:02:14.338Z,1.85
2017-06-30T02:04:55.378Z,2.12
2017-06-30T02:07:21.422Z,1.90
2017-06-30T02:09:47.477Z,2.05
2017-06-30T02:12:13.535Z,2.00
2017-06-30T02:14:39.585Z,1.70
2017-06-30T02:17:05.634Z,1.90
2017-06-30T02:19:32.446Z,2.20
2017-06-30T02:21:58.502Z,2.40
2017-06-30T02:24:24.550Z,2.45
2017-06-30T02:26:50.606Z,2.58
2017-06-30T02:29:16.927Z,2.28
2017-06-30T02:31:42.991Z,2.10
2017-06-30T02:34:09.062Z,2.87
2017-06-30T02:36:35.126Z,2.20
2017-06-30T02:39:01.191Z,1.98
2017-06-30T02:41:27.254Z,2.33
2017-06-30T02:43:53.318Z,2.28
2017-06-30T02:46:19.387Z,2.85
2017-06-30T02:48:45.430Z,2.55
2017-06-30T02:51:11.481Z,2.50
2017-06-30T02:53:37.530Z,1.48
2017-06-30T02:56:03.581Z,1.77
2017-06-30T02:58:29.634Z,2.35
2017-06-30T03:01:10.675Z,2.08
2017-06-30T03:03:37.483Z,2.40
2017-06-30T03:06:03.553Z,2.22
2017-06-30T03:08:29.589Z,1.67
2017-06-30T03:10:55.658Z,1.95
2017-06-30T03:13:21.712Z,2.58
2017-06-30T03:15:47.746Z,1.95
2017-06-30T03:18:14.554Z,2.90
2017-06-30T03:20:40.602Z,2.30
2017-06-30T03:23:06.657Z,2.17
2017-06-30T03:25:32.714Z,2.20
2017-06-30T03:27:58.805Z,1.98
2017-06-30T03:30:25.634Z,1.70
2017-06-30T03:32:51.683Z,1.90
2017-06-30T03:35:17.733Z,2.03
2017-06-30T03:37:43.778Z,2.30
2017-06-30T03:40:09.828Z,2.28
2017-06-30T03:42:35.873Z,1.67
2017-06-30T03:45:01.918Z,1.85
2017-06-30T03:47:27.962Z,1.15
2017-06-30T03:49:54.007Z,1.80
2017-06-30T03:52:20.070Z,1.80
2017-06-30T03:54:46.122Z,1.77
2017-06-30T03:57:12.170Z,1.50
2017-06-30T03:59:38.217Z,1.62
2017-06-30T04:02:04.266Z,1.75
2017-06-30T04:04:30.301Z,1.73
2017-06-30T04:06:56.376Z,1.45
2017-06-30T04:09:22.426Z,1.55
2017-06-30T04:12:03.442Z,1.30
2017-06-30T04:14:29.500Z,1.77
2017-06-30T04:16:55.547Z,1.77
2017-06-30T04:19:21.598Z,1.95
2017-06-30T04:21:47.650Z,1.15
2017-06-30T04:24:13.698Z,1.30
2017-06-30T04:26:39.743Z,1.42
2017-06-30T04:29:05.799Z,1.90
2017-06-30T04:31:31.855Z,1.73
2017-06-30T04:33:57.912Z,1.10
2017-06-30T04:36:23.954Z,2.17
2017-06-30T04:38:49.998Z,1.85
2017-06-30T04:41:16.038Z,1.58
2017-06-30T04:43:42.079Z,1.70
2017-06-30T04:46:08.132Z,0.88
2017-06-30T04:48:34.185Z,0.95
2017-06-30T04:51:00.238Z,1.10
2017-06-30T04:53:26.277Z,1.62
2017-06-30T04:55:52.338Z,1.48
2017-06-30T04:58:18.389Z,1.40
2017-06-30T05:00:44.441Z,1.62
2017-06-30T05:03:10.489Z,1.75
2017-06-30T05:05:36.551Z,1.20
2017-06-30T05:08:02.593Z,1.37
2017-06-30T05:10:28.657Z,1.45
2017-06-30T05:12:54.706Z,1.60
2017-06-30T05:15:20.779Z,1.23
2017-06-30T05:17:46.841Z,1.10
2017-06-30T05:20:12.907Z,1.45
2017-06-30T05:22:38.976Z,1.12
2017-06-30T05:25:05.020Z,1.48
2017-06-30T05:27:31.805Z,1.30
2017-06-30T05:29:57.859Z,1.70
2017-06-30T05:32:23.915Z,2.08
2017-06-30T05:34:49.984Z,1.15
2017-06-30T05:37:16.026Z,1.83
2017-06-30T05:39:42.094Z,1.30
2017-06-30T05:42:08.149Z,1.85
2017-06-30T05:44:34.245Z,1.30
2017-06-30T05:47:01.031Z,2.05
2017-06-30T05:49:27.118Z,1.60
2017-06-30T05:51:53.205Z,1.50
2017-06-30T05:54:19.357Z,1.45
2017-06-30T05:56:45.445Z,1.45
2017-06-30T05:59:11.497Z,1.90
2017-06-30T06:01:37.552Z,1.45
2017-06-30T06:04:03.622Z,1.12
2017-06-30T06:06:29.681Z,1.75
2017-06-30T06:08:55.758Z,1.10
2017-06-30T06:11:21.849Z,2.05
2017-06-30T06:13:48.032Z,2.42
2017-06-30T06:16:14.189Z,2.15
2017-06-30T06:18:55.221Z,1.90
2017-06-30T06:21:21.280Z,1.40
2017-06-30T06:23:47.348Z,1.65
2017-06-30T06:26:13.419Z,2.00
2017-06-30T06:28:39.493Z,1.50
2017-06-30T06:31:05.610Z,3.20
2017-06-30T06:33:31.689Z,1.50
2017-06-30T06:35:57.742Z,1.85
2017-06-30T06:38:23.786Z,1.90
2017-06-30T06:40:49.855Z,1.35
2017-06-30T06:43:15.898Z,2.87
2017-06-30T06:45:41.977Z,1.40
2017-06-30T06:48:08.043Z,1.20
2017-06-30T06:50:34.098Z,2.97
2017-06-30T06:53:00.153Z,1.42
2017-06-30T06:55:26.206Z,3.65
2017-06-30T06:57:52.274Z,1.50
2017-06-30T07:00:18.331Z,1.95
2017-06-30T07:02:44.373Z,1.30
2017-06-30T07:05:10.453Z,1.65
2017-06-30T07:07:36.519Z,1.40
2017-06-30T07:10:02.598Z,1.20
2017-06-30T07:12:28.666Z,1.23
2017-06-30T07:15:01.742Z,1.58
2017-06-30T07:17:27.790Z,1.30
2017-06-30T07:19:53.851Z,1.40
2017-06-30T07:22:35.664Z,1.60
2017-06-30T07:25:01.753Z,1.30
2017-06-30T07:27:27.814Z,1.30
2017-06-30T07:29:53.887Z,1.45
2017-06-30T07:32:19.970Z,1.40
2017-06-30T07:34:46.045Z,1.55
2017-06-30T07:37:12.122Z,1.75
2017-06-30T07:39:38.202Z,1.05
2017-06-30T07:42:04.283Z,1.10
2017-06-30T07:44:30.414Z,1.00
2017-06-30T07:46:56.678Z,1.30
2017-06-30T07:49:22.740Z,1.83
2017-06-30T07:51:48.833Z,1.12
2017-06-30T07:54:15.023Z,1.50
2017-06-30T07:56:41.186Z,1.45
2017-06-30T07:59:07.388Z,2.05
2017-06-30T08:01:33.585Z,1.40
2017-06-30T08:03:59.667Z,1.10
2017-06-30T08:06:26.067Z,1.25
2017-06-30T08:08:52.247Z,1.65
2017-06-30T08:11:18.321Z,1.73
2017-06-30T08:13:44.437Z,1.30
2017-06-30T08:16:10.506Z,1.20
2017-06-30T08:18:36.567Z,1.00
2017-06-30T08:21:02.666Z,1.45
2017-06-30T08:23:28.762Z,1.50
2017-06-30T08:25:54.878Z,1.42
2017-06-30T08:28:21.770Z,1.45
2017-06-30T08:30:47.908Z,1.50
2017-06-30T08:33:13.964Z,1.37
2017-06-30T08:35:40.063Z,1.23
2017-06-30T08:40:42.004Z,1.45
2017-06-30T08:43:08.154Z,2.05
2017-06-30T08:45:34.229Z,1.95
2017-06-30T08:48:00.370Z,1.60
2017-06-30T08:50:26.482Z,1.50
2017-06-30T08:52:52.578Z,1.70
2017-06-30T08:55:18.706Z,1.00
2017-06-30T08:57:44.798Z,1.92
2017-06-30T09:00:11.604Z,1.55
2017-06-30T09:02:37.690Z,1.10
2017-06-30T09:05:03.804Z,1.50
2017-06-30T09:07:30.638Z,2.17
2017-06-30T09:09:57.536Z,1.42
2017-06-30T09:12:23.578Z,1.30
2017-06-30T09:14:49.637Z,1.60
2017-06-30T09:17:16.434Z,1.58
2017-06-30T09:19:42.487Z,1.65
2017-06-30T09:22:08.546Z,1.10
2017-06-30T09:24:34.621Z,1.85
2017-06-30T09:27:00.710Z,1.50
2017-06-30T09:29:26.754Z,1.50
2017-06-30T09:31:52.881Z,1.40
2017-06-30T09:34:18.949Z,1.60
2017-06-30T09:36:45.028Z,1.52
2017-06-30T09:39:11.082Z,1.42
2017-06-30T09:41:37.209Z,1.77
2017-06-30T09:44:03.322Z,1.60
2017-06-30T09:46:29.399Z,1.67
2017-06-30T09:48:55.450Z,1.73
2017-06-30T09:51:21.500Z,1.40
2017-06-30T09:53:47.555Z,1.45
2017-06-30T09:56:13.612Z,1.08
2017-06-30T09:58:39.670Z,1.20
2017-06-30T10:01:05.719Z,2.08
2017-06-30T10:03:32.327Z,1.27
2017-06-30T10:05:58.391Z,1.65
2017-06-30T10:08:24.445Z,1.40
2017-06-30T10:10:50.522Z,1.30
2017-06-30T10:13:16.586Z,1.80
2017-06-30T10:15:42.657Z,2.45
2017-06-30T10:18:08.722Z,1.77
2017-06-30T10:20:34.782Z,1.60
2017-06-30T10:23:01.610Z,2.20
2017-06-30T10:25:29.010Z,1.90
2017-06-30T10:27:55.191Z,1.92
2017-06-30T10:30:21.254Z,2.17
2017-06-30T10:32:47.331Z,1.90
2017-06-30T10:35:13.406Z,1.12
2017-06-30T10:37:39.464Z,2.03
2017-06-30T10:40:05.554Z,1.50
2017-06-30T10:42:32.358Z,1.70
2017-06-30T10:44:58.414Z,1.45
2017-06-30T10:47:24.500Z,1.30
2017-06-30T10:49:50.579Z,1.20
2017-06-30T10:52:16.627Z,1.40
2017-06-30T10:54:42.696Z,1.80
2017-06-30T10:57:08.762Z,1.15
2017-06-30T10:59:34.830Z,1.60
2017-06-30T11:02:00.890Z,1.20
2017-06-30T11:04:27.013Z,1.15
2017-06-30T11:06:53.079Z,1.30
2017-06-30T11:09:19.155Z,1.20
2017-06-30T11:11:45.249Z,1.40
2017-06-30T11:14:11.354Z,1.45
2017-06-30T11:16:37.427Z,1.60
2017-06-30T11:19:03.482Z,1.30
2017-06-30T11:21:29.590Z,1.20
2017-06-30T11:23:55.651Z,1.30
2017-06-30T11:26:21.795Z,1.30
2017-06-30T11:28:47.958Z,1.60
2017-06-30T11:31:14.036Z,1.42
2017-06-30T11:33:40.108Z,1.58
2017-06-30T11:36:06.203Z,1.15
2017-06-30T11:38:32.333Z,2.20
2017-06-30T11:40:58.463Z,1.40
2017-06-30T11:43:24.550Z,1.20
2017-06-30T11:45:50.605Z,1.80
2017-06-30T11:48:16.719Z,1.33
2017-06-30T11:50:42.787Z,1.40
2017-06-30T11:53:09.105Z,1.48
2017-06-30T11:55:35.302Z,1.00
2017-06-30T11:58:02.380Z,2.12
2017-06-30T12:00:28.464Z,1.30
2017-06-30T12:02:54.552Z,2.12
2017-06-30T12:05:20.746Z,1.50
2017-06-30T12:07:46.816Z,1.40
2017-06-30T12:10:12.918Z,1.75
2017-06-30T12:12:39.067Z,1.52
2017-06-30T12:15:05.157Z,1.15
2017-06-30T12:17:31.221Z,1.40
2017-06-30T12:19:57.270Z,1.60
2017-06-30T12:22:23.338Z,2.33
2017-06-30T12:24:49.431Z,1.45
2017-06-30T12:27:16.247Z,1.40
2017-06-30T12:29:42.550Z,1.37
2017-06-30T12:32:08.642Z,1.20
2017-06-30T12:34:49.679Z,1.20
2017-06-30T12:37:15.773Z,1.70
2017-06-30T12:39:41.872Z,1.40
2017-06-30T12:42:08.675Z,1.90
2017-06-30T12:44:34.732Z,1.42
2017-06-30T12:47:00.882Z,1.50
2017-06-30T12:49:26.959Z,1.55
2017-06-30T12:51:53.017Z,1.80
2017-06-30T12:54:19.830Z,1.45
2017-06-30T12:56:45.912Z,1.50
2017-06-30T12:59:11.974Z,1.47
2017-06-30T13:01:38.018Z,1.40
2017-06-30T13:04:04.090Z,1.63
2017-06-30T13:06:30.153Z,1.80
2017-06-30T13:08:56.255Z,1.77
2017-06-30T13:11:22.333Z,1.27
2017-06-30T13:13:48.410Z,1.50
2017-06-30T13:16:14.473Z,1.52
2017-06-30T13:18:40.574Z,1.90
2017-06-30T13:21:06.647Z,1.52
2017-06-30T13:23:47.674Z,1.10
2017-06-30T13:26:13.726Z,1.50
2017-06-30T13:28:39.779Z,1.77
2017-06-30T13:31:05.866Z,1.48
2017-06-30T13:33:31.923Z,1.80
2017-06-30T13:35:57.995Z,1.30
2017-06-30T13:38:24.098Z,1.65
2017-06-30T13:40:50.162Z,1.73
2017-06-30T13:43:16.233Z,1.43
2017-06-30T13:45:42.289Z,1.50
2017-06-30T13:48:08.369Z,1.30
2017-06-30T13:50:34.442Z,1.27
2017-06-30T13:53:00.518Z,1.60
2017-06-30T13:55:26.619Z,1.43
2017-06-30T13:57:52.695Z,1.20
2017-06-30T14:00:18.750Z,1.50
2017-06-30T14:02:44.856Z,1.73
2017-06-30T14:05:10.921Z,1.90
2017-06-30T14:07:37.021Z,1.30
2017-06-30T14:10:03.102Z,1.30
2017-06-30T14:12:29.947Z,1.10
2017-06-30T14:15:10.957Z,1.40
2017-06-30T14:17:37.753Z,1.40
2017-06-30T14:20:03.835Z,1.37
2017-06-30T14:22:29.904Z,1.60
2017-06-30T14:24:55.973Z,1.60
2017-06-30T14:27:22.055Z,2.07
2017-06-30T14:29:48.122Z,1.60
2017-06-30T14:32:14.221Z,0.90
2017-06-30T14:34:40.285Z,1.47
2017-06-30T14:37:06.367Z,1.20
2017-06-30T14:39:32.426Z,1.47
2017-06-30T14:41:58.498Z,1.93
2017-06-30T14:44:24.566Z,1.80
2017-06-30T14:46:50.617Z,1.53
2017-06-30T14:49:31.639Z,1.57
2017-06-30T14:51:57.686Z,1.43
2017-06-30T14:54:23.735Z,1.00
2017-06-30T14:56:49.793Z,1.30
2017-06-30T14:59:16.215Z,1.47
2017-06-30T15:04:18.159Z,1.30
2017-06-30T15:06:44.232Z,1.47
2017-06-30T15:09:10.292Z,1.40
2017-06-30T15:11:36.340Z,1.43
2017-06-30T15:14:02.390Z,1.30
2017-06-30T15:16:43.398Z,1.67
2017-06-30T15:19:09.514Z,1.30
2017-06-30T15:21:35.565Z,1.20
2017-06-30T15:24:01.622Z,1.43
2017-06-30T15:26:27.690Z,1.47
2017-06-30T15:28:53.730Z,1.30
2017-06-30T15:31:19.790Z,1.37
2017-06-30T15:33:45.839Z,1.20
2017-06-30T15:36:11.894Z,1.43
2017-06-30T15:38:37.966Z,1.70
2017-06-30T15:41:04.030Z,1.30
2017-06-30T15:43:30.814Z,0.90
2017-06-30T15:45:56.998Z,1.10
2017-06-30T15:48:23.050Z,1.00
2017-06-30T15:50:49.094Z,1.10
2017-06-30T15:53:15.168Z,1.53
2017-06-30T15:55:41.222Z,1.30
2017-06-30T15:58:07.283Z,0.83
2017-06-30T16:00:33.363Z,1.27
2017-06-30T16:02:59.458Z,1.00
2017-06-30T16:05:25.514Z,1.40
2017-06-30T16:07:51.596Z,1.12
2017-06-30T16:10:17.641Z,1.30
2017-06-30T16:12:43.695Z,1.10
2017-06-30T16:15:09.773Z,1.13
2017-06-30T16:17:35.818Z,1.10
2017-06-30T16:20:01.898Z,1.10
2017-06-30T16:22:27.954Z,1.23
2017-06-30T16:24:54.017Z,1.00
2017-06-30T16:27:20.810Z,0.90
2017-06-30T16:29:46.864Z,1.10
2017-06-30T16:32:12.918Z,1.00
2017-06-30T16:34:39.018Z,0.93
2017-06-30T16:37:05.086Z,1.30
2017-06-30T16:39:31.141Z,1.10
2017-06-30T16:41:57.217Z,1.40
2017-06-30T16:44:23.274Z,1.30
2017-06-30T16:46:49.333Z,1.15
2017-06-30T16:49:15.386Z,1.02
2017-06-30T16:51:42.191Z,1.12
2017-06-30T16:54:08.278Z,1.02
2017-06-30T16:56:34.342Z,1.05
2017-06-30T16:59:00.407Z,1.53
2017-06-30T17:01:26.462Z,2.70
2017-06-30T17:03:52.514Z,1.40
2017-06-30T17:06:18.630Z,1.10
2017-06-30T17:08:44.698Z,1.20
2017-06-30T17:11:10.758Z,0.85
2017-06-30T17:13:36.858Z,1.00
2017-06-30T17:16:02.935Z,1.00
2017-06-30T17:18:28.987Z,0.80
2017-06-30T17:20:55.048Z,1.20
2017-06-30T17:23:21.114Z,1.10
2017-06-30T17:25:47.166Z,1.73
2017-06-30T17:28:13.213Z,1.00
2017-06-30T17:30:39.285Z,0.80
2017-06-30T17:33:05.397Z,1.10
2017-06-30T17:35:31.474Z,1.40
2017-06-30T17:37:57.535Z,1.65
2017-06-30T17:40:24.330Z,1.15
2017-06-30T17:42:50.395Z,1.45
2017-06-30T17:45:16.450Z,1.48
2017-06-30T17:47:42.507Z,1.35
2017-06-30T17:50:23.543Z,1.30
2017-06-30T17:52:49.602Z,1.20
2017-06-30T17:55:15.651Z,1.10
2017-06-30T17:57:41.706Z,0.90
2017-06-30T18:00:07.787Z,1.52
2017-06-30T18:02:33.911Z,1.12
2017-06-30T18:04:59.963Z,1.30
2017-06-30T18:07:26.018Z,1.60
2017-06-30T18:09:52.077Z,1.30
2017-06-30T18:12:18.125Z,1.50
2017-06-30T18:14:44.173Z,1.10
2017-06-30T18:17:10.259Z,1.30
2017-06-30T18:19:36.303Z,1.45
2017-06-30T18:22:02.360Z,2.08
2017-06-30T18:24:28.431Z,1.60
2017-06-30T18:26:54.506Z,1.17
2017-06-30T18:29:20.567Z,1.45
2017-06-30T18:31:46.630Z,1.23
2017-06-30T18:34:12.674Z,1.50
2017-06-30T18:36:38.749Z,1.15
2017-06-30T18:39:04.811Z,1.50
2017-06-30T18:41:30.863Z,0.90
2017-06-30T18:43:56.924Z,1.25
2017-06-30T18:46:22.982Z,1.33
2017-06-30T18:48:49.038Z,1.80
2017-06-30T18:51:15.091Z,1.58
2017-06-30T18:53:41.183Z,1.50
2017-06-30T18:56:07.225Z,1.33
2017-06-30T18:58:33.290Z,2.03
2017-06-30T19:00:59.333Z,1.15
2017-06-30T19:03:25.393Z,2.10
2017-06-30T19:05:51.457Z,1.55
2017-06-30T19:08:17.527Z,1.30
2017-06-30T19:10:43.577Z,1.83
2017-06-30T19:13:09.675Z,1.85
2017-06-30T19:15:35.719Z,1.35
2017-06-30T19:18:01.798Z,1.30
2017-06-30T19:20:27.894Z,1.27
2017-06-30T19:22:53.950Z,1.30
2017-06-30T19:25:20.011Z,1.85
2017-06-30T19:27:46.067Z,2.20
2017-06-30T19:30:12.126Z,1.45
2017-06-30T19:32:38.171Z,1.50
2017-06-30T19:35:04.219Z,1.48
2017-06-30T19:37:30.281Z,1.50
2017-06-30T19:39:56.329Z,1.75
2017-06-30T19:42:22.385Z,3.12
2017-06-30T19:44:48.438Z,4.90
2017-06-30T19:47:14.507Z,6.47
2017-06-30T19:49:40.567Z,8.40
2017-06-30T19:52:06.624Z,8.77
2017-06-30T19:54:32.690Z,6.55
2017-06-30T19:56:58.732Z,3.62
2017-06-30T19:59:24.774Z,3.55
2017-06-30T20:01:50.826Z,2.75
2017-06-30T20:04:16.889Z,2.78
2017-06-30T20:06:42.935Z,2.90
2017-06-30T20:09:09.003Z,2.95
2017-06-30T20:11:35.138Z,2.90
2017-06-30T20:14:01.193Z,3.20
2017-06-30T20:16:27.264Z,3.00
2017-06-30T20:18:53.310Z,3.08
2017-06-30T20:21:19.378Z,3.00
2017-06-30T20:23:45.425Z,2.67
2017-06-30T20:26:11.504Z,2.65
2017-06-30T20:28:37.556Z,2.50
2017-06-30T20:31:03.619Z,2.90
2017-06-30T20:33:29.671Z,2.65
2017-06-30T20:35:55.729Z,2.50
2017-06-30T20:38:21.778Z,2.50
2017-06-30T20:40:47.826Z,2.42
2017-06-30T20:43:13.899Z,2.60
2017-06-30T20:45:39.950Z,2.28
2017-06-30T20:48:06.011Z,2.90
2017-06-30T20:50:32.067Z,2.90
2017-06-30T20:52:58.147Z,2.72
2017-06-30T20:55:24.229Z,1.80
2017-06-30T20:57:50.298Z,2.42
2017-06-30T21:00:16.373Z,2.28
2017-06-30T21:02:42.438Z,2.20
2017-06-30T21:05:08.486Z,3.00
2017-06-30T21:07:34.535Z,3.03
2017-06-30T21:10:01.350Z,1.50
2017-06-30T21:12:27.417Z,1.37
2017-06-30T21:14:53.462Z,2.10
2017-06-30T21:17:19.506Z,1.17
2017-06-30T21:19:45.555Z,1.40
2017-06-30T21:22:11.601Z,0.80
2017-06-30T21:24:37.633Z,0.90
2017-06-30T21:27:03.689Z,0.80
2017-06-30T21:29:29.758Z,0.77
2017-06-30T21:31:55.802Z,0.77
2017-06-30T21:34:21.871Z,1.20
2017-06-30T21:36:47.942Z,0.93
2017-06-30T21:39:14.026Z,0.90
2017-06-30T21:41:40.062Z,0.80
2017-06-30T21:44:06.120Z,0.75
2017-06-30T21:46:47.118Z,0.93
2017-06-30T21:49:28.168Z,0.75
2017-06-30T21:51:54.222Z,0.80
2017-06-30T21:54:20.274Z,1.48
2017-06-30T21:56:47.064Z,0.80
2017-06-30T21:59:13.126Z,0.70
2017-06-30T22:01:39.174Z,1.05
2017-06-30T22:04:05.250Z,0.80
2017-06-30T22:06:31.306Z,1.00
2017-06-30T22:08:57.377Z,1.30
2017-06-30T22:11:23.431Z,2.35
2017-06-30T22:13:49.490Z,1.42
2017-06-30T22:16:16.294Z,1.90
2017-06-30T22:18:42.355Z,1.40
2017-06-30T22:21:08.437Z,1.45
2017-06-30T22:23:34.519Z,1.35
2017-06-30T22:26:00.583Z,1.70
2017-06-30T22:28:26.657Z,1.60
2017-06-30T22:30:52.710Z,1.33
2017-06-30T22:33:18.775Z,1.10
2017-06-30T22:35:44.813Z,1.65
2017-06-30T22:38:10.899Z,1.33
2017-06-30T22:40:36.944Z,1.17
2017-06-30T22:43:03.011Z,1.58
2017-06-30T22:45:29.819Z,1.35
2017-06-30T22:47:55.896Z,1.25
2017-06-30T22:50:21.963Z,1.10
2017-06-30T22:52:48.000Z,1.50
2017-06-30T22:55:14.082Z,1.20
2017-06-30T22:57:40.127Z,1.42
2017-06-30T23:00:06.182Z,1.77
2017-06-30T23:02:47.201Z,1.60
2017-06-30T23:05:13.268Z,1.40
2017-06-30T23:07:39.314Z,1.55
2017-06-30T23:10:05.366Z,1.27
2017-06-30T23:13:03.582Z,1.65
2017-06-30T23:15:29.674Z,1.60
2017-06-30T23:17:55.748Z,1.87
2017-06-30T23:20:21.794Z,1.30
2017-06-30T23:22:47.841Z,1.65
2017-06-30T23:25:13.898Z,1.20
2017-06-30T23:27:39.966Z,1.35
2017-06-30T23:30:06.026Z,1.10
2017-06-30T23:32:32.106Z,1.12
2017-06-30T23:34:58.159Z,1.05
2017-06-30T23:37:24.226Z,1.12
2017-06-30T23:39:50.291Z,1.67
2017-06-30T23:42:16.350Z,1.45
2017-06-30T23:44:42.440Z,1.10
2017-06-30T23:47:08.505Z,1.30
2017-06-30T23:49:34.550Z,1.05
2017-06-30T23:52:01.343Z,1.30
2017-06-30T23:54:27.398Z,1.30
2017-06-30T23:56:53.447Z,1.17
2017-06-30T23:59:19.498Z,1.12
